Terminal Aerodrome Forecast
Issued by NWS

Home | Current Version | Previous Version | Text Only | Print | Product List | Glossary On
Versions: 1 2 3 4 5 6 7 8 9 10 11 12 13 14 15 16 17
000
FTUS43 KAPX 022329
TAFTVC
TAF
KTVC 022329Z 0300/0324 VRB03KT 6SM -TSRA BKN060CB
     FM030100 27004KT P6SM BKN045
     FM030500 31005KT P6SM SCT020
     FM031400 32009KT P6SM SCT025 SCT040=

USA.gov is the U.S. government's official web portal to all federal, state and local government web resources and services.